Time;durP1;ratioP1;P1;durP2;ratioP2;P2;SDS_P1;SDS_P2;PMS_P1;PMS_P2;Temp;Humidity;BMP_temperature;BMP_pressure;BME280_temperature;BME280_humidity;BME280_pressure;Samples;Min_cycle;Max_cycle;Signal;HPM_P1;HPM_P2
2023/11/17 00:00:05;;;;;;;12.10;8.97;;;;;;;;;;521631;28;1132;-75
2023/11/17 00:00:22;;;;;;;10.27;8.70;;;;;;;;;;521617;28;764;-75
2023/11/17 00:00:38;;;;;;;11.52;8.75;;;;;;;;;;521714;28;953;-75
2023/11/17 00:00:53;;;;;;;12.87;8.40;;;;;;;;;;521715;28;1096;-75
2023/11/17 00:01:08;;;;;;;11.90;8.07;;;;;;;;;;519280;28;1615;-75
2023/11/17 00:01:24;;;;;;;11.03;8.20;;;;;;;;;;520053;28;1106;-76
2023/11/17 00:01:39;;;;;;;12.23;8.32;;;;;;;;;;521692;28;1391;-75
2023/11/17 00:01:54;;;;;;;12.33;8.33;;;;;;;;;;522223;28;1361;-75
2023/11/17 00:02:10;;;;;;;11.43;8.37;;;;;;;;;;524421;28;1032;-75
2023/11/17 00:02:25;;;;;;;14.70;8.75;;;;;;;;;;525987;28;815;-75
2023/11/17 00:02:40;;;;;;;14.63;8.60;;;;;;;;;;525752;28;853;-75
2023/11/17 00:02:56;;;;;;;14.10;8.35;;;;;;;;;;521893;28;1104;-75
2023/11/17 00:03:11;;;;;;;14.93;8.50;;;;;;;;;;521329;28;1243;-75
2023/11/17 00:03:29;;;;;;;12.73;8.50;;;;;;;;;;521931;28;799;-75
2023/11/17 00:03:44;;;;;;;12.23;8.45;;;;;;;;;;523581;28;988;-75
2023/11/17 00:04:00;;;;;;;12.60;8.47;;;;;;;;;;521696;28;1238;-75
2023/11/17 00:04:16;;;;;;;11.23;8.43;;;;;;;;;;519577;28;1308;-76
2023/11/17 00:04:31;;;;;;;12.02;8.65;;;;;;;;;;519660;28;1207;-75
2023/11/17 00:04:46;;;;;;;13.50;9.30;;;;;;;;;;516087;28;1340;-75
2023/11/17 00:05:03;;;;;;;12.75;8.82;;;;;;;;;;517576;28;1233;-75
2023/11/17 00:05:21;;;;;;;11.65;8.18;;;;;;;;;;517405;28;1305;-75
2023/11/17 00:05:36;;;;;;;13.70;8.38;;;;;;;;;;517601;28;846;-76
2023/11/17 00:05:51;;;;;;;13.93;8.83;;;;;;;;;;518415;28;1121;-75
2023/11/17 00:06:07;;;;;;;12.50;9.07;;;;;;;;;;521263;28;1135;-75
2023/11/17 00:06:24;;;;;;;12.75;8.68;;;;;;;;;;525782;28;857;-75
2023/11/17 00:06:40;;;;;;;12.55;8.30;;;;;;;;;;527909;28;958;-76
2023/11/17 00:06:56;;;;;;;13.00;8.30;;;;;;;;;;528316;28;2760;-75
2023/11/17 00:07:11;;;;;;;12.87;8.40;;;;;;;;;;523616;28;1998;-75
2023/11/17 00:07:28;;;;;;;13.33;8.80;;;;;;;;;;523260;28;1417;-75
2023/11/17 00:07:43;;;;;;;13.85;9.02;;;;;;;;;;521687;28;1275;-75
2023/11/17 00:07:58;;;;;;;12.73;8.60;;;;;;;;;;521839;28;1801;-75
2023/11/17 00:08:14;;;;;;;12.07;8.45;;;;;;;;;;522976;28;906;-76
2023/11/17 00:08:29;;;;;;;11.07;8.47;;;;;;;;;;523377;28;1878;-76
2023/11/17 00:08:44;;;;;;;10.80;8.37;;;;;;;;;;521691;28;2043;-75
2023/11/17 00:09:00;;;;;;;12.23;8.52;;;;;;;;;;523860;28;846;-75
2023/11/17 00:09:16;;;;;;;12.03;8.57;;;;;;;;;;523722;28;1079;-75
2023/11/17 00:09:31;;;;;;;12.07;8.80;;;;;;;;;;523711;28;1298;-76
2023/11/17 00:09:46;;;;;;;14.07;9.20;;;;;;;;;;525623;28;1049;-75
2023/11/17 00:10:02;;;;;;;15.37;9.23;;;;;;;;;;525496;28;1693;-75
2023/11/17 00:10:18;;;;;;;13.60;9.00;;;;;;;;;;524635;28;908;-76
2023/11/17 00:10:34;;;;;;;12.25;8.68;;;;;;;;;;522117;28;1456;-76
2023/11/17 00:10:49;;;;;;;12.03;8.70;;;;;;;;;;523823;28;966;-76
2023/11/17 00:11:05;;;;;;;12.55;8.80;;;;;;;;;;524461;28;988;-75
2023/11/17 00:11:23;;;;;;;12.60;8.77;;;;;;;;;;523633;28;1171;-75
2023/11/17 00:11:38;;;;;;;12.48;8.65;;;;;;;;;;523625;28;965;-75
2023/11/17 00:11:53;;;;;;;12.37;8.63;;;;;;;;;;523713;28;938;-75
2023/11/17 00:12:09;;;;;;;12.00;8.77;;;;;;;;;;524219;28;965;-75
2023/11/17 00:12:24;;;;;;;11.90;8.87;;;;;;;;;;525691;28;1079;-75
2023/11/17 00:12:41;;;;;;;12.13;8.70;;;;;;;;;;527009;28;1095;-75
2023/11/17 00:12:56;;;;;;;12.18;8.60;;;;;;;;;;527862;28;866;-75
2023/11/17 00:13:11;;;;;;;11.05;8.48;;;;;;;;;;527500;28;1086;-75
2023/11/17 00:13:27;;;;;;;11.47;8.47;;;;;;;;;;525413;28;1542;-75
2023/11/17 00:13:42;;;;;;;12.73;8.70;;;;;;;;;;525368;28;827;-76
2023/11/17 00:13:57;;;;;;;16.00;9.07;;;;;;;;;;525928;28;1064;-76
2023/11/17 00:14:13;;;;;;;17.55;9.05;;;;;;;;;;524858;28;1182;-76
2023/11/17 00:14:28;;;;;;;13.63;8.90;;;;;;;;;;525659;28;1322;-75
2023/11/17 00:14:43;;;;;;;13.47;9.20;;;;;;;;;;525847;28;1526;-76
2023/11/17 00:14:58;;;;;;;13.18;9.02;;;;;;;;;;525791;28;1030;-76
2023/11/17 00:15:14;;;;;;;12.73;8.87;;;;;;;;;;524474;28;1107;-75
2023/11/17 00:15:30;;;;;;;13.10;8.80;;;;;;;;;;523651;28;1229;-75
2023/11/17 00:15:45;;;;;;;13.00;8.77;;;;;;;;;;523575;28;973;-76
2023/11/17 00:16:01;;;;;;;12.75;8.45;;;;;;;;;;521660;28;1231;-75
2023/11/17 00:16:17;;;;;;;12.15;8.13;;;;;;;;;;519127;28;1352;-76
2023/11/17 00:16:33;;;;;;;10.83;8.13;;;;;;;;;;520130;28;827;-76
2023/11/17 00:16:48;;;;;;;13.77;8.57;;;;;;;;;;519580;28;1188;-75
2023/11/17 00:17:03;;;;;;;15.17;8.77;;;;;;;;;;518735;28;1841;-75
2023/11/17 00:17:19;;;;;;;12.23;8.68;;;;;;;;;;519992;28;1157;-76
2023/11/17 00:17:34;;;;;;;11.93;8.90;;;;;;;;;;519526;28;1214;-75
2023/11/17 00:17:51;;;;;;;13.38;8.85;;;;;;;;;;520116;28;815;-76
2023/11/17 00:18:07;;;;;;;12.70;8.95;;;;;;;;;;522451;28;1475;-75
2023/11/17 00:18:22;;;;;;;11.40;8.77;;;;;;;;;;524229;28;878;-75
2023/11/17 00:18:38;;;;;;;11.02;7.80;;;;;;;;;;524154;28;1910;-76
2023/11/17 00:18:53;;;;;;;11.18;7.93;;;;;;;;;;526358;28;1281;-76
2023/11/17 00:19:09;;;;;;;11.87;8.20;;;;;;;;;;525131;28;1155;-76
2023/11/17 00:19:24;;;;;;;11.52;7.93;;;;;;;;;;522487;28;1504;-76
2023/11/17 00:19:40;;;;;;;11.37;8.30;;;;;;;;;;525000;28;869;-76
2023/11/17 00:19:56;;;;;;;11.97;8.57;;;;;;;;;;524323;28;1095;-76
2023/11/17 00:20:11;;;;;;;13.20;9.18;;;;;;;;;;525162;28;1345;-75
2023/11/17 00:20:27;;;;;;;14.80;9.50;;;;;;;;;;526304;28;850;-75
2023/11/17 00:20:42;;;;;;;15.10;9.33;;;;;;;;;;525838;28;1052;-76
2023/11/17 00:20:57;;;;;;;13.65;9.10;;;;;;;;;;522421;28;1272;-75
2023/11/17 00:21:13;;;;;;;12.33;9.00;;;;;;;;;;522986;28;956;-76
2023/11/17 00:21:29;;;;;;;11.27;8.90;;;;;;;;;;524216;28;859;-76
2023/11/17 00:21:44;;;;;;;12.10;8.60;;;;;;;;;;524062;28;930;-76
2023/11/17 00:21:59;;;;;;;13.07;8.98;;;;;;;;;;521964;28;1191;-76
2023/11/17 00:22:14;;;;;;;12.53;8.90;;;;;;;;;;523839;28;1055;-76
2023/11/17 00:22:30;;;;;;;11.50;8.30;;;;;;;;;;524209;28;866;-76
2023/11/17 00:22:47;;;;;;;11.77;8.40;;;;;;;;;;524421;28;890;-76
2023/11/17 00:23:03;;;;;;;12.60;8.50;;;;;;;;;;524679;28;1781;-76
2023/11/17 00:23:19;;;;;;;11.97;8.33;;;;;;;;;;526281;28;814;-75
2023/11/17 00:23:34;;;;;;;12.00;8.73;;;;;;;;;;524773;28;1432;-75
2023/11/17 00:23:49;;;;;;;12.27;8.88;;;;;;;;;;524052;28;1138;-75
2023/11/17 00:24:05;;;;;;;10.97;8.57;;;;;;;;;;524491;28;814;-76
2023/11/17 00:24:21;;;;;;;11.15;8.35;;;;;;;;;;526244;28;870;-76
2023/11/17 00:24:36;;;;;;;12.32;8.40;;;;;;;;;;526234;28;889;-75
2023/11/17 00:24:54;;;;;;;11.60;8.47;;;;;;;;;;526214;28;830;-76
2023/11/17 00:25:09;;;;;;;11.25;8.38;;;;;;;;;;525390;28;1036;-75
2023/11/17 00:25:24;;;;;;;11.67;8.40;;;;;;;;;;524343;28;1104;-75
2023/11/17 00:25:40;;;;;;;11.70;8.73;;;;;;;;;;522304;28;1460;-76
2023/11/17 00:25:55;;;;;;;12.00;8.82;;;;;;;;;;524734;28;834;-76
2023/11/17 00:26:11;;;;;;;12.13;8.63;;;;;;;;;;525095;28;1507;-76
2023/11/17 00:26:27;;;;;;;11.85;8.80;;;;;;;;;;524532;28;866;-76
2023/11/17 00:26:44;;;;;;;13.05;8.75;;;;;;;;;;521959;28;1409;-76
2023/11/17 00:26:59;;;;;;;12.93;8.57;;;;;;;;;;523896;28;1611;-75
2023/11/17 00:27:16;;;;;;;11.97;8.80;;;;;;;;;;523997;28;1059;-75
2023/11/17 00:27:36;;;;;;;12.20;9.13;;;;;;;;;;525009;28;854;-75
2023/11/17 00:27:51;;;;;;;12.68;9.23;;;;;;;;;;526368;28;897;-75
2023/11/17 00:28:07;;;;;;;11.90;8.87;;;;;;;;;;525932;28;1039;-76
2023/11/17 00:28:23;;;;;;;13.35;8.98;;;;;;;;;;526227;28;1045;-76
2023/11/17 00:28:39;;;;;;;14.77;9.20;;;;;;;;;;523306;28;1270;-76
2023/11/17 00:28:54;;;;;;;13.30;9.02;;;;;;;;;;521748;28;1909;-76
2023/11/17 00:29:10;;;;;;;12.73;9.10;;;;;;;;;;523887;28;843;-75
2023/11/17 00:29:25;;;;;;;11.75;8.95;;;;;;;;;;523759;28;803;-75
2023/11/17 00:29:40;;;;;;;11.60;8.80;;;;;;;;;;521990;28;930;-75
2023/11/17 00:29:56;;;;;;;12.27;9.20;;;;;;;;;;522161;28;986;-75
2023/11/17 00:30:13;;;;;;;14.27;9.40;;;;;;;;;;521792;28;1223;-75
2023/11/17 00:30:29;;;;;;;13.57;9.25;;;;;;;;;;522551;28;1378;-75
2023/11/17 00:30:44;;;;;;;13.23;9.20;;;;;;;;;;524568;28;1027;-76
2023/11/17 00:30:59;;;;;;;13.27;9.50;;;;;;;;;;526204;28;877;-76
2023/11/17 00:31:15;;;;;;;12.93;9.40;;;;;;;;;;527767;28;1035;-76
2023/11/17 00:31:30;;;;;;;12.38;9.05;;;;;;;;;;526611;28;985;-76
2023/11/17 00:31:45;;;;;;;12.10;8.87;;;;;;;;;;525973;28;1052;-76
2023/11/17 00:32:01;;;;;;;13.07;9.03;;;;;;;;;;525804;28;2618;-75
2023/11/17 00:32:16;;;;;;;13.55;9.40;;;;;;;;;;527011;28;1624;-76
2023/11/17 00:32:31;;;;;;;13.73;9.60;;;;;;;;;;527415;28;1851;-75
2023/11/17 00:32:47;;;;;;;13.73;9.40;;;;;;;;;;524100;28;1162;-75
2023/11/17 00:33:02;;;;;;;14.93;9.57;;;;;;;;;;524111;28;873;-75
2023/11/17 00:33:19;;;;;;;15.57;9.77;;;;;;;;;;525932;28;1312;-75
2023/11/17 00:33:35;;;;;;;15.60;9.80;;;;;;;;;;525679;28;921;-76
2023/11/17 00:33:52;;;;;;;15.43;9.80;;;;;;;;;;526155;28;811;-76
2023/11/17 00:34:08;;;;;;;13.23;9.60;;;;;;;;;;523346;28;1368;-76
2023/11/17 00:34:24;;;;;;;12.50;9.60;;;;;;;;;;522006;28;925;-75
2023/11/17 00:34:39;;;;;;;13.05;9.80;;;;;;;;;;520652;28;1405;-76
2023/11/17 00:34:55;;;;;;;13.03;9.67;;;;;;;;;;522194;28;1044;-76
2023/11/17 00:35:11;;;;;;;12.82;9.80;;;;;;;;;;522770;28;1508;-76
2023/11/17 00:35:27;;;;;;;12.40;9.63;;;;;;;;;;524200;28;958;-76
2023/11/17 00:35:45;;;;;;;13.30;9.63;;;;;;;;;;524794;28;1561;-76
2023/11/17 00:36:01;;;;;;;13.98;9.65;;;;;;;;;;524362;28;864;-76
2023/11/17 00:36:16;;;;;;;13.18;9.65;;;;;;;;;;523380;28;1726;-76
2023/11/17 00:36:31;;;;;;;15.13;9.70;;;;;;;;;;521366;28;1419;-76
2023/11/17 00:36:47;;;;;;;15.32;10.00;;;;;;;;;;519972;28;1286;-76
2023/11/17 00:37:13;;;;;;;13.17;9.87;;;;;;;;;;519907;28;906;-76
2023/11/17 00:37:28;;;;;;;13.18;9.60;;;;;;;;;;519970;28;866;-76
2023/11/17 00:37:43;;;;;;;13.40;9.87;;;;;;;;;;517870;28;1320;-76
2023/11/17 00:37:59;;;;;;;13.27;10.20;;;;;;;;;;518868;28;904;-76
2023/11/17 00:38:14;;;;;;;13.35;10.27;;;;;;;;;;519172;28;2298;-76
2023/11/17 00:38:31;;;;;;;13.67;10.03;;;;;;;;;;519963;28;1941;-76
2023/11/17 00:38:46;;;;;;;13.77;10.07;;;;;;;;;;523570;28;1961;-76
2023/11/17 00:39:02;;;;;;;14.17;10.30;;;;;;;;;;522069;28;1329;-76
2023/11/17 00:39:17;;;;;;;14.38;10.00;;;;;;;;;;521880;28;1080;-76
2023/11/17 00:39:37;;;;;;;15.10;9.80;;;;;;;;;;522442;28;883;-75
2023/11/17 00:39:54;;;;;;;15.40;10.05;;;;;;;;;;524211;28;1178;-75
2023/11/17 00:40:10;;;;;;;13.07;9.82;;;;;;;;;;524189;28;1381;-77
2023/11/17 00:40:25;;;;;;;14.60;10.10;;;;;;;;;;523795;28;2411;-76
2023/11/17 00:40:41;;;;;;;13.77;10.23;;;;;;;;;;521821;28;1912;-76
2023/11/17 00:40:56;;;;;;;13.60;10.05;;;;;;;;;;525039;28;1840;-76
2023/11/17 00:41:12;;;;;;;14.57;10.00;;;;;;;;;;525006;28;1087;-76
2023/11/17 00:41:28;;;;;;;13.05;9.75;;;;;;;;;;526174;28;863;-76
2023/11/17 00:41:43;;;;;;;13.15;9.75;;;;;;;;;;525064;28;858;-75
2023/11/17 00:41:59;;;;;;;13.43;10.00;;;;;;;;;;524162;28;1020;-75
2023/11/17 00:42:14;;;;;;;14.73;10.37;;;;;;;;;;525383;28;1127;-75
2023/11/17 00:42:29;;;;;;;15.53;10.50;;;;;;;;;;524473;28;1072;-76
2023/11/17 00:42:45;;;;;;;13.45;10.15;;;;;;;;;;526118;28;902;-75
2023/11/17 00:43:03;;;;;;;12.80;10.13;;;;;;;;;;524065;28;1306;-76
2023/11/17 00:43:19;;;;;;;13.07;10.30;;;;;;;;;;521980;28;862;-76
2023/11/17 00:43:34;;;;;;;13.63;10.20;;;;;;;;;;521583;28;842;-76
2023/11/17 00:43:50;;;;;;;14.75;10.00;;;;;;;;;;522015;28;854;-76
2023/11/17 00:44:05;;;;;;;15.17;10.47;;;;;;;;;;522274;28;977;-76
2023/11/17 00:44:21;;;;;;;14.53;10.50;;;;;;;;;;524898;28;835;-76
2023/11/17 00:44:36;;;;;;;13.75;10.05;;;;;;;;;;525848;28;1246;-76
2023/11/17 00:44:52;;;;;;;14.93;10.60;;;;;;;;;;526771;28;973;-76
2023/11/17 00:45:09;;;;;;;15.57;10.82;;;;;;;;;;528346;28;1051;-76
2023/11/17 00:45:24;;;;;;;14.27;10.57;;;;;;;;;;525982;28;1428;-76
2023/11/17 00:45:39;;;;;;;13.65;10.68;;;;;;;;;;526328;28;759;-75
2023/11/17 00:45:57;;;;;;;15.03;10.80;;;;;;;;;;526013;28;1027;-76
2023/11/17 00:46:13;;;;;;;14.88;10.32;;;;;;;;;;526106;28;1012;-76
2023/11/17 00:46:30;;;;;;;15.65;10.30;;;;;;;;;;526296;28;953;-76
2023/11/17 00:46:45;;;;;;;15.35;10.32;;;;;;;;;;526090;28;894;-75
2023/11/17 00:47:04;;;;;;;14.40;10.40;;;;;;;;;;524798;28;1720;-76
2023/11/17 00:47:19;;;;;;;13.50;10.02;;;;;;;;;;524041;28;1879;-76
2023/11/17 00:47:35;;;;;;;13.47;10.47;;;;;;;;;;524015;28;858;-76
2023/11/17 00:47:51;;;;;;;14.93;10.50;;;;;;;;;;524125;28;847;-75
2023/11/17 00:48:06;;;;;;;14.55;10.40;;;;;;;;;;525046;28;1378;-76
2023/11/17 00:48:22;;;;;;;15.52;10.75;;;;;;;;;;524056;28;1237;-76
2023/11/17 00:48:37;;;;;;;14.87;10.77;;;;;;;;;;521332;28;1212;-76
2023/11/17 00:48:53;;;;;;;14.95;10.88;;;;;;;;;;521929;28;1162;-76
2023/11/17 00:49:08;;;;;;;15.00;10.40;;;;;;;;;;521877;28;1000;-75
2023/11/17 00:49:24;;;;;;;15.77;10.50;;;;;;;;;;522119;28;1132;-76
2023/11/17 00:49:40;;;;;;;15.52;11.02;;;;;;;;;;522510;28;994;-75
2023/11/17 00:49:56;;;;;;;14.00;11.17;;;;;;;;;;520315;28;1265;-75
2023/11/17 00:50:11;;;;;;;14.95;11.05;;;;;;;;;;523475;28;1096;-76
2023/11/17 00:50:29;;;;;;;14.55;11.00;;;;;;;;;;526738;28;913;-76
2023/11/17 00:50:45;;;;;;;14.52;11.20;;;;;;;;;;528250;28;873;-76
2023/11/17 00:51:01;;;;;;;15.57;11.40;;;;;;;;;;528155;28;873;-75
2023/11/17 00:51:21;;;;;;;16.50;11.48;;;;;;;;;;526241;28;1039;-75
2023/11/17 00:51:36;;;;;;;16.63;11.70;;;;;;;;;;524209;28;1262;-77
2023/11/17 00:51:52;;;;;;;14.53;11.03;;;;;;;;;;524250;28;1790;-76
2023/11/17 00:52:07;;;;;;;15.30;11.10;;;;;;;;;;523717;28;1089;-76
2023/11/17 00:52:22;;;;;;;15.68;11.52;;;;;;;;;;524112;28;968;-76
2023/11/17 00:52:39;;;;;;;16.47;11.33;;;;;;;;;;521914;28;1272;-76
2023/11/17 00:52:55;;;;;;;16.05;11.30;;;;;;;;;;521928;28;1446;-75
2023/11/17 00:53:12;;;;;;;15.27;11.47;;;;;;;;;;521715;28;973;-76
2023/11/17 00:53:29;;;;;;;15.93;11.43;;;;;;;;;;522596;28;1119;-75
2023/11/17 00:53:44;;;;;;;15.50;11.90;;;;;;;;;;522460;28;1255;-76
2023/11/17 00:54:00;;;;;;;15.10;11.75;;;;;;;;;;524116;28;1062;-75
2023/11/17 00:54:15;;;;;;;15.23;11.48;;;;;;;;;;523913;28;1091;-76
2023/11/17 00:54:36;;;;;;;15.27;11.30;;;;;;;;;;524052;28;846;-76
2023/11/17 00:54:55;;;;;;;15.95;11.27;;;;;;;;;;525566;28;945;-75
2023/11/17 00:55:13;;;;;;;17.50;11.43;;;;;;;;;;526085;28;1126;-75
2023/11/17 00:55:28;;;;;;;16.33;11.65;;;;;;;;;;526245;28;1044;-75
2023/11/17 00:55:46;;;;;;;14.93;11.75;;;;;;;;;;530355;27;834;-76
2023/11/17 00:56:04;;;;;;;15.93;12.00;;;;;;;;;;530551;27;893;-76
2023/11/17 00:56:19;;;;;;;15.52;11.73;;;;;;;;;;523834;28;1254;-76
2023/11/17 00:56:35;;;;;;;15.18;11.80;;;;;;;;;;524160;28;858;-76
2023/11/17 00:56:54;;;;;;;14.47;11.30;;;;;;;;;;524124;28;954;-75
2023/11/17 00:57:10;;;;;;;16.50;11.60;;;;;;;;;;524688;28;1159;-76
2023/11/17 00:57:25;;;;;;;17.63;12.18;;;;;;;;;;525909;28;855;-76
2023/11/17 00:57:41;;;;;;;17.53;12.40;;;;;;;;;;525272;28;1246;-75
2023/11/17 00:57:58;;;;;;;15.68;11.90;;;;;;;;;;519832;28;1279;-76
2023/11/17 00:58:14;;;;;;;14.25;11.52;;;;;;;;;;520755;28;1277;-75
2023/11/17 00:58:29;;;;;;;15.07;12.07;;;;;;;;;;519661;28;1367;-76
2023/11/17 00:58:45;;;;;;;16.27;11.97;;;;;;;;;;519585;28;1920;-76
2023/11/17 00:59:01;;;;;;;16.90;11.90;;;;;;;;;;519222;28;1791;-76
2023/11/17 00:59:16;;;;;;;16.40;12.02;;;;;;;;;;519891;28;1064;-76
2023/11/17 00:59:31;;;;;;;16.87;12.00;;;;;;;;;;519604;28;1133;-76
2023/11/17 00:59:47;;;;;;;16.33;12.07;;;;;;;;;;520887;28;784;-76
2023/11/17 01:00:04;;;;;;;15.57;12.25;;;;;;;;;;524176;28;874;-76
2023/11/17 01:00:20;;;;;;;15.65;12.73;;;;;;;;;;522778;28;1127;-76
2023/11/17 01:00:35;;;;;;;16.38;12.30;;;;;;;;;;525043;28;1569;-76
2023/11/17 01:00:51;;;;;;;17.30;12.47;;;;;;;;;;526006;28;1337;-76
2023/11/17 01:01:06;;;;;;;16.90;12.60;;;;;;;;;;524712;28;1068;-76
2023/11/17 01:01:22;;;;;;;16.63;11.97;;;;;;;;;;528910;27;1039;-76
2023/11/17 01:01:39;;;;;;;17.20;12.20;;;;;;;;;;530403;27;823;-76
2023/11/17 01:01:55;;;;;;;17.05;12.45;;;;;;;;;;530569;27;941;-75
2023/11/17 01:02:11;;;;;;;17.80;12.63;;;;;;;;;;527064;28;1195;-76
2023/11/17 01:02:26;;;;;;;17.23;12.35;;;;;;;;;;523887;28;1318;-76
2023/11/17 01:02:41;;;;;;;16.23;12.20;;;;;;;;;;524186;28;862;-76
2023/11/17 01:02:57;;;;;;;17.57;12.87;;;;;;;;;;521920;28;1176;-75
2023/11/17 01:03:14;;;;;;;16.58;12.82;;;;;;;;;;523313;28;1036;-76
2023/11/17 01:03:29;;;;;;;15.52;12.35;;;;;;;;;;523651;28;870;-76
2023/11/17 01:03:45;;;;;;;16.33;12.33;;;;;;;;;;523729;28;898;-76
2023/11/17 01:04:00;;;;;;;16.88;12.85;;;;;;;;;;524449;28;1574;-76
2023/11/17 01:04:15;;;;;;;18.27;13.27;;;;;;;;;;526064;28;1256;-76
2023/11/17 01:04:31;;;;;;;17.53;12.90;;;;;;;;;;526096;28;795;-76
2023/11/17 01:04:47;;;;;;;15.35;12.50;;;;;;;;;;526818;28;831;-76
2023/11/17 01:05:02;;;;;;;15.87;12.43;;;;;;;;;;528405;28;830;-76
2023/11/17 01:05:18;;;;;;;17.03;12.47;;;;;;;;;;528193;28;1039;-76
2023/11/17 01:05:34;;;;;;;17.45;12.70;;;;;;;;;;528083;28;1016;-77
2023/11/17 01:05:49;;;;;;;18.73;13.10;;;;;;;;;;528459;27;783;-76
2023/11/17 01:06:06;;;;;;;17.70;13.00;;;;;;;;;;530295;27;1074;-76
2023/11/17 01:06:21;;;;;;;15.73;12.93;;;;;;;;;;528421;28;878;-76
2023/11/17 01:06:36;;;;;;;15.67;12.80;;;;;;;;;;528058;28;1246;-76
2023/11/17 01:06:53;;;;;;;15.70;12.57;;;;;;;;;;526167;28;1404;-76
2023/11/17 01:07:09;;;;;;;15.07;12.93;;;;;;;;;;523707;28;1292;-76
2023/11/17 01:07:24;;;;;;;15.77;13.00;;;;;;;;;;523422;28;1860;-76
2023/11/17 01:07:40;;;;;;;15.63;12.90;;;;;;;;;;523626;28;1508;-76
2023/11/17 01:07:56;;;;;;;16.20;13.20;;;;;;;;;;522974;28;815;-75
2023/11/17 01:08:12;;;;;;;17.80;13.55;;;;;;;;;;524070;28;1249;-75
2023/11/17 01:08:28;;;;;;;17.90;13.37;;;;;;;;;;523916;28;997;-76
2023/11/17 01:08:43;;;;;;;17.23;13.25;;;;;;;;;;523492;28;1445;-75
2023/11/17 01:08:59;;;;;;;17.98;13.23;;;;;;;;;;526108;28;1162;-75
2023/11/17 01:09:14;;;;;;;18.93;13.00;;;;;;;;;;526732;28;1138;-76
2023/11/17 01:09:29;;;;;;;18.00;12.70;;;;;;;;;;523234;28;1070;-75
2023/11/17 01:09:45;;;;;;;18.48;12.70;;;;;;;;;;522667;28;823;-75
2023/11/17 01:10:04;;;;;;;17.20;13.03;;;;;;;;;;524000;28;819;-76
2023/11/17 01:10:20;;;;;;;16.63;13.52;;;;;;;;;;523940;28;922;-75
2023/11/17 01:10:36;;;;;;;16.63;13.47;;;;;;;;;;524792;28;961;-76
2023/11/17 01:10:53;;;;;;;17.23;13.50;;;;;;;;;;526075;28;1255;-76
2023/11/17 01:11:11;;;;;;;17.38;13.30;;;;;;;;;;526026;28;1074;-75
2023/11/17 01:11:27;;;;;;;16.85;13.30;;;;;;;;;;527197;28;861;-76
2023/11/17 01:11:42;;;;;;;17.07;13.73;;;;;;;;;;524116;28;803;-76
2023/11/17 01:11:57;;;;;;;16.23;13.50;;;;;;;;;;523795;28;803;-76
2023/11/17 01:12:14;;;;;;;17.98;13.73;;;;;;;;;;524285;28;1192;-76
2023/11/17 01:12:30;;;;;;;18.52;13.60;;;;;;;;;;526241;28;913;-76
2023/11/17 01:12:45;;;;;;;16.73;13.23;;;;;;;;;;527377;28;882;-76
2023/11/17 01:13:00;;;;;;;16.53;13.50;;;;;;;;;;528238;28;989;-76
2023/11/17 01:13:16;;;;;;;16.70;13.38;;;;;;;;;;526377;28;971;-76
2023/11/17 01:13:31;;;;;;;16.80;13.30;;;;;;;;;;525894;28;869;-76
2023/11/17 01:13:47;;;;;;;17.08;13.10;;;;;;;;;;525967;28;886;-76
2023/11/17 01:14:03;;;;;;;16.10;13.10;;;;;;;;;;523015;28;1738;-76
2023/11/17 01:14:18;;;;;;;16.45;13.20;;;;;;;;;;526009;28;1435;-75
2023/11/17 01:14:33;;;;;;;17.73;13.03;;;;;;;;;;524792;28;1277;-76
2023/11/17 01:14:49;;;;;;;17.23;13.07;;;;;;;;;;523986;28;894;-76
2023/11/17 01:15:07;;;;;;;16.30;13.20;;;;;;;;;;522596;28;1232;-76
2023/11/17 01:15:22;;;;;;;16.10;13.20;;;;;;;;;;524041;28;960;-76
2023/11/17 01:15:37;;;;;;;16.17;12.83;;;;;;;;;;524062;28;807;-76
2023/11/17 01:15:53;;;;;;;16.73;12.90;;;;;;;;;;524744;28;948;-76
2023/11/17 01:16:08;;;;;;;16.17;13.17;;;;;;;;;;525787;28;936;-76
2023/11/17 01:16:23;;;;;;;15.03;12.90;;;;;;;;;;526739;28;870;-75
2023/11/17 01:16:39;;;;;;;16.08;13.27;;;;;;;;;;525972;28;1222;-76
2023/11/17 01:16:54;;;;;;;16.60;13.40;;;;;;;;;;524617;28;1452;-76
2023/11/17 01:17:11;;;;;;;16.83;13.27;;;;;;;;;;525971;28;1094;-76
2023/11/17 01:17:26;;;;;;;18.98;13.63;;;;;;;;;;522323;28;1296;-76
2023/11/17 01:17:42;;;;;;;18.10;13.52;;;;;;;;;;522158;28;866;-76
2023/11/17 01:17:58;;;;;;;16.85;13.48;;;;;;;;;;521932;28;949;-76
2023/11/17 01:18:14;;;;;;;16.50;13.33;;;;;;;;;;521461;28;1274;-75
2023/11/17 01:18:29;;;;;;;16.75;13.25;;;;;;;;;;521264;28;1795;-76
2023/11/17 01:18:45;;;;;;;16.60;13.23;;;;;;;;;;524117;28;1953;-75
2023/11/17 01:19:00;;;;;;;16.67;13.00;;;;;;;;;;524765;28;854;-75
2023/11/17 01:19:15;;;;;;;17.13;13.30;;;;;;;;;;524171;28;1139;-75
2023/11/17 01:19:30;;;;;;;18.08;13.65;;;;;;;;;;523958;28;874;-76
2023/11/17 01:19:46;;;;;;;18.77;13.67;;;;;;;;;;522042;28;1190;-75
2023/11/17 01:20:02;;;;;;;17.70;13.63;;;;;;;;;;522246;28;819;-76
2023/11/17 01:20:19;;;;;;;16.58;13.52;;;;;;;;;;523800;28;946;-75
2023/11/17 01:20:36;;;;;;;18.57;13.37;;;;;;;;;;524000;28;1162;-75
2023/11/17 01:20:51;;;;;;;18.88;13.50;;;;;;;;;;522022;28;1365;-76
2023/11/17 01:21:07;;;;;;;17.45;13.20;;;;;;;;;;522273;28;1060;-75
2023/11/17 01:21:24;;;;;;;17.60;13.15;;;;;;;;;;524100;28;851;-75
2023/11/17 01:21:39;;;;;;;17.75;13.30;;;;;;;;;;523975;28;883;-76
2023/11/17 01:21:54;;;;;;;16.48;13.43;;;;;;;;;;523996;28;1076;-76
2023/11/17 01:22:10;;;;;;;15.83;13.30;;;;;;;;;;523973;28;1099;-75
2023/11/17 01:22:26;;;;;;;16.53;13.40;;;;;;;;;;523884;28;891;-75
2023/11/17 01:22:41;;;;;;;17.58;13.57;;;;;;;;;;524585;28;946;-76
2023/11/17 01:22:57;;;;;;;17.90;13.60;;;;;;;;;;526192;28;799;-76
2023/11/17 01:23:13;;;;;;;18.47;13.60;;;;;;;;;;526049;28;1063;-76
2023/11/17 01:23:28;;;;;;;18.58;13.57;;;;;;;;;;525946;28;898;-76
2023/11/17 01:23:44;;;;;;;17.48;13.57;;;;;;;;;;526247;28;1663;-76
2023/11/17 01:24:00;;;;;;;18.75;13.75;;;;;;;;;;525671;28;1385;-75
2023/11/17 01:24:15;;;;;;;18.52;14.23;;;;;;;;;;525649;28;1020;-75
2023/11/17 01:24:31;;;;;;;18.43;14.27;;;;;;;;;;525671;28;803;-76
2023/11/17 01:24:46;;;;;;;18.40;14.03;;;;;;;;;;523969;28;1231;-76
2023/11/17 01:25:01;;;;;;;16.50;13.48;;;;;;;;;;521986;28;1195;-75
2023/11/17 01:25:17;;;;;;;16.13;13.13;;;;;;;;;;523780;28;1127;-75
2023/11/17 01:25:32;;;;;;;18.37;13.70;;;;;;;;;;521955;28;1299;-75
2023/11/17 01:25:48;;;;;;;17.67;14.05;;;;;;;;;;520034;28;1177;-75
2023/11/17 01:26:04;;;;;;;16.48;14.00;;;;;;;;;;521716;28;1095;-76
2023/11/17 01:26:19;;;;;;;17.92;14.00;;;;;;;;;;519908;28;910;-76
2023/11/17 01:26:35;;;;;;;17.83;13.77;;;;;;;;;;520154;28;899;-76
2023/11/17 01:26:50;;;;;;;18.20;13.93;;;;;;;;;;522253;28;1027;-75
2023/11/17 01:27:05;;;;;;;18.67;14.02;;;;;;;;;;524272;28;1115;-76
2023/11/17 01:27:21;;;;;;;17.03;13.43;;;;;;;;;;526364;28;831;-77
2023/11/17 01:27:36;;;;;;;16.37;13.43;;;;;;;;;;528654;28;894;-75
2023/11/17 01:27:51;;;;;;;15.98;13.80;;;;;;;;;;530456;27;846;-75
2023/11/17 01:28:07;;;;;;;16.37;13.90;;;;;;;;;;529976;27;1038;-75
2023/11/17 01:28:22;;;;;;;17.23;14.10;;;;;;;;;;526821;28;1810;-75
2023/11/17 01:28:37;;;;;;;16.83;14.18;;;;;;;;;;523402;28;1273;-75
2023/11/17 01:28:52;;;;;;;16.30;13.83;;;;;;;;;;525809;28;1028;-73
2023/11/17 01:29:08;;;;;;;16.47;13.40;;;;;;;;;;525774;28;1150;-76
2023/11/17 01:29:24;;;;;;;16.70;13.40;;;;;;;;;;525855;28;921;-75
2023/11/17 01:29:40;;;;;;;16.35;13.88;;;;;;;;;;525745;28;819;-75
2023/11/17 01:29:55;;;;;;;16.27;13.82;;;;;;;;;;526324;28;799;-75
2023/11/17 01:30:11;;;;;;;15.73;13.20;;;;;;;;;;525987;28;1062;-76
2023/11/17 01:30:28;;;;;;;15.98;13.13;;;;;;;;;;526452;28;875;-75
2023/11/17 01:30:43;;;;;;;17.70;13.63;;;;;;;;;;528262;28;846;-76
2023/11/17 01:31:00;;;;;;;18.30;13.97;;;;;;;;;;528368;28;830;-76
2023/11/17 01:31:15;;;;;;;17.20;13.82;;;;;;;;;;529801;27;1007;-75
2023/11/17 01:31:31;;;;;;;17.40;13.90;;;;;;;;;;528089;28;1088;-76
2023/11/17 01:31:46;;;;;;;18.65;14.35;;;;;;;;;;528151;28;1015;-75
2023/11/17 01:32:01;;;;;;;18.13;13.97;;;;;;;;;;528202;28;877;-76
2023/11/17 01:32:17;;;;;;;16.33;13.50;;;;;;;;;;526145;28;1209;-76
2023/11/17 01:32:32;;;;;;;18.67;13.90;;;;;;;;;;526095;28;846;-76
2023/11/17 01:32:49;;;;;;;19.63;14.07;;;;;;;;;;524572;28;1791;-76
2023/11/17 01:33:05;;;;;;;19.05;13.82;;;;;;;;;;525525;28;1892;-76
2023/11/17 01:33:21;;;;;;;18.55;13.82;;;;;;;;;;526226;28;1907;-76
2023/11/17 01:33:36;;;;;;;17.75;13.80;;;;;;;;;;525654;28;823;-76
2023/11/17 01:33:51;;;;;;;17.77;14.00;;;;;;;;;;525999;28;1021;-76
2023/11/17 01:34:06;;;;;;;17.13;13.83;;;;;;;;;;527090;27;1083;-75
2023/11/17 01:34:22;;;;;;;18.07;14.00;;;;;;;;;;530477;27;918;-75
2023/11/17 01:34:37;;;;;;;17.15;14.10;;;;;;;;;;530367;27;838;-76
2023/11/17 01:34:54;;;;;;;16.07;13.60;;;;;;;;;;530195;27;882;-76
2023/11/17 01:35:09;;;;;;;15.77;13.52;;;;;;;;;;527847;27;1209;-76
2023/11/17 01:35:27;;;;;;;17.07;14.13;;;;;;;;;;530555;27;842;-75
2023/11/17 01:35:43;;;;;;;18.52;14.23;;;;;;;;;;530364;27;924;-76
2023/11/17 01:35:59;;;;;;;19.77;14.40;;;;;;;;;;528197;28;1594;-76